sensor_id;sensor_type;location;lat;lon;timestamp;P1;durP1;ratioP1;P2;durP2;ratioP2
12880;SDS011;6508;53.786;9.996;2022-08-25T00:00:11;8.07;;;7.50;;
12880;SDS011;6508;53.786;9.996;2022-08-25T00:02:39;8.70;;;8.00;;
12880;SDS011;6508;53.786;9.996;2022-08-25T00:05:20;7.80;;;7.22;;
12880;SDS011;6508;53.786;9.996;2022-08-25T00:07:48;7.72;;;7.32;;
12880;SDS011;6508;53.786;9.996;2022-08-25T00:10:17;7.63;;;7.05;;
12880;SDS011;6508;53.786;9.996;2022-08-25T00:12:45;8.23;;;7.75;;
12880;SDS011;6508;53.786;9.996;2022-08-25T00:15:13;8.13;;;7.63;;
12880;SDS011;6508;53.786;9.996;2022-08-25T00:17:40;8.43;;;7.72;;
12880;SDS011;6508;53.786;9.996;2022-08-25T00:20:08;7.82;;;7.32;;
12880;SDS011;6508;53.786;9.996;2022-08-25T00:22:36;9.23;;;8.45;;
12880;SDS011;6508;53.786;9.996;2022-08-25T00:25:04;8.45;;;7.75;;
12880;SDS011;6508;53.786;9.996;2022-08-25T00:27:33;8.48;;;8.00;;
12880;SDS011;6508;53.786;9.996;2022-08-25T00:30:01;7.90;;;7.32;;
12880;SDS011;6508;53.786;9.996;2022-08-25T00:32:29;7.28;;;6.68;;
12880;SDS011;6508;53.786;9.996;2022-08-25T00:34:57;7.85;;;7.25;;
12880;SDS011;6508;53.786;9.996;2022-08-25T00:37:26;7.72;;;7.20;;
12880;SDS011;6508;53.786;9.996;2022-08-25T00:39:53;7.50;;;7.00;;
12880;SDS011;6508;53.786;9.996;2022-08-25T00:42:22;8.35;;;7.85;;
12880;SDS011;6508;53.786;9.996;2022-08-25T00:44:52;8.55;;;8.07;;
12880;SDS011;6508;53.786;9.996;2022-08-25T00:47:20;8.77;;;8.35;;
12880;SDS011;6508;53.786;9.996;2022-08-25T00:49:48;8.98;;;8.38;;
12880;SDS011;6508;53.786;9.996;2022-08-25T00:52:18;8.23;;;7.68;;
12880;SDS011;6508;53.786;9.996;2022-08-25T00:54:48;8.48;;;7.78;;
12880;SDS011;6508;53.786;9.996;2022-08-25T00:57:18;8.73;;;8.10;;
12880;SDS011;6508;53.786;9.996;2022-08-25T01:00:05;8.35;;;7.80;;
12880;SDS011;6508;53.786;9.996;2022-08-25T01:02:33;8.77;;;8.27;;
12880;SDS011;6508;53.786;9.996;2022-08-25T01:05:01;8.45;;;7.80;;
12880;SDS011;6508;53.786;9.996;2022-08-25T01:07:28;8.18;;;7.55;;
12880;SDS011;6508;53.786;9.996;2022-08-25T01:09:56;8.75;;;8.15;;
12880;SDS011;6508;53.786;9.996;2022-08-25T01:12:25;8.52;;;8.00;;
12880;SDS011;6508;53.786;9.996;2022-08-25T01:14:53;7.55;;;7.15;;
12880;SDS011;6508;53.786;9.996;2022-08-25T01:17:23;8.63;;;7.95;;
12880;SDS011;6508;53.786;9.996;2022-08-25T01:19:53;8.20;;;7.63;;
12880;SDS011;6508;53.786;9.996;2022-08-25T01:22:23;8.65;;;8.00;;
12880;SDS011;6508;53.786;9.996;2022-08-25T01:24:53;8.70;;;8.10;;
12880;SDS011;6508;53.786;9.996;2022-08-25T01:27:24;9.23;;;8.60;;
12880;SDS011;6508;53.786;9.996;2022-08-25T01:29:51;9.15;;;8.55;;
12880;SDS011;6508;53.786;9.996;2022-08-25T01:32:19;9.10;;;8.60;;
12880;SDS011;6508;53.786;9.996;2022-08-25T01:34:46;8.32;;;7.82;;
12880;SDS011;6508;53.786;9.996;2022-08-25T01:37:17;9.05;;;8.13;;
12880;SDS011;6508;53.786;9.996;2022-08-25T01:39:47;8.15;;;7.70;;
12880;SDS011;6508;53.786;9.996;2022-08-25T01:42:22;10.30;;;9.30;;
12880;SDS011;6508;53.786;9.996;2022-08-25T01:44:50;8.45;;;7.85;;
12880;SDS011;6508;53.786;9.996;2022-08-25T01:47:18;8.38;;;7.78;;
12880;SDS011;6508;53.786;9.996;2022-08-25T01:49:46;8.75;;;8.15;;
12880;SDS011;6508;53.786;9.996;2022-08-25T01:52:16;9.13;;;8.25;;
12880;SDS011;6508;53.786;9.996;2022-08-25T01:54:48;9.27;;;8.50;;
12880;SDS011;6508;53.786;9.996;2022-08-25T01:57:16;8.20;;;7.70;;
12880;SDS011;6508;53.786;9.996;2022-08-25T01:59:44;8.73;;;8.07;;
12880;SDS011;6508;53.786;9.996;2022-08-25T02:02:12;9.43;;;8.90;;
12880;SDS011;6508;53.786;9.996;2022-08-25T02:04:43;10.02;;;9.32;;
12880;SDS011;6508;53.786;9.996;2022-08-25T02:07:11;8.55;;;7.95;;
12880;SDS011;6508;53.786;9.996;2022-08-25T02:09:39;9.50;;;8.90;;
12880;SDS011;6508;53.786;9.996;2022-08-25T02:12:08;9.55;;;8.90;;
12880;SDS011;6508;53.786;9.996;2022-08-25T02:14:36;8.40;;;7.60;;
12880;SDS011;6508;53.786;9.996;2022-08-25T02:17:04;9.05;;;8.35;;
12880;SDS011;6508;53.786;9.996;2022-08-25T02:19:32;8.57;;;7.82;;
12880;SDS011;6508;53.786;9.996;2022-08-25T02:21:59;9.88;;;9.18;;
12880;SDS011;6508;53.786;9.996;2022-08-25T02:24:27;8.57;;;8.02;;
12880;SDS011;6508;53.786;9.996;2022-08-25T02:26:55;9.70;;;8.90;;
12880;SDS011;6508;53.786;9.996;2022-08-25T02:29:24;9.90;;;9.20;;
12880;SDS011;6508;53.786;9.996;2022-08-25T02:31:52;9.02;;;8.40;;
12880;SDS011;6508;53.786;9.996;2022-08-25T02:34:20;10.13;;;9.43;;
12880;SDS011;6508;53.786;9.996;2022-08-25T02:36:48;9.45;;;8.95;;
12880;SDS011;6508;53.786;9.996;2022-08-25T02:39:16;9.52;;;8.82;;
12880;SDS011;6508;53.786;9.996;2022-08-25T02:41:44;8.95;;;8.35;;
12880;SDS011;6508;53.786;9.996;2022-08-25T02:44:11;10.40;;;9.65;;
12880;SDS011;6508;53.786;9.996;2022-08-25T02:46:40;10.48;;;9.68;;
12880;SDS011;6508;53.786;9.996;2022-08-25T02:49:08;9.30;;;8.60;;
12880;SDS011;6508;53.786;9.996;2022-08-25T02:51:36;10.02;;;9.43;;
12880;SDS011;6508;53.786;9.996;2022-08-25T02:54:04;9.15;;;8.45;;
12880;SDS011;6508;53.786;9.996;2022-08-25T02:56:32;10.52;;;9.73;;
12880;SDS011;6508;53.786;9.996;2022-08-25T02:59:00;10.45;;;9.63;;
12880;SDS011;6508;53.786;9.996;2022-08-25T03:01:28;9.88;;;9.18;;
12880;SDS011;6508;53.786;9.996;2022-08-25T03:03:58;11.60;;;10.70;;
12880;SDS011;6508;53.786;9.996;2022-08-25T03:06:27;10.95;;;10.35;;
12880;SDS011;6508;53.786;9.996;2022-08-25T03:08:55;9.70;;;9.13;;
12880;SDS011;6508;53.786;9.996;2022-08-25T03:11:22;11.05;;;10.27;;
12880;SDS011;6508;53.786;9.996;2022-08-25T03:13:52;10.07;;;9.23;;
12880;SDS011;6508;53.786;9.996;2022-08-25T03:16:19;10.88;;;9.75;;
12880;SDS011;6508;53.786;9.996;2022-08-25T03:18:47;11.32;;;10.52;;
12880;SDS011;6508;53.786;9.996;2022-08-25T03:21:17;10.95;;;10.07;;
12880;SDS011;6508;53.786;9.996;2022-08-25T03:23:45;9.73;;;9.10;;
12880;SDS011;6508;53.786;9.996;2022-08-25T03:26:13;10.38;;;9.63;;
12880;SDS011;6508;53.786;9.996;2022-08-25T03:28:59;11.43;;;10.40;;
12880;SDS011;6508;53.786;9.996;2022-08-25T03:31:30;10.55;;;9.63;;
12880;SDS011;6508;53.786;9.996;2022-08-25T03:33:59;10.60;;;9.80;;
12880;SDS011;6508;53.786;9.996;2022-08-25T03:36:28;10.45;;;9.55;;
12880;SDS011;6508;53.786;9.996;2022-08-25T03:38:55;9.98;;;9.27;;
12880;SDS011;6508;53.786;9.996;2022-08-25T03:41:26;9.48;;;8.88;;
12880;SDS011;6508;53.786;9.996;2022-08-25T03:43:54;10.82;;;10.10;;
12880;SDS011;6508;53.786;9.996;2022-08-25T03:46:23;10.10;;;9.20;;
12880;SDS011;6508;53.786;9.996;2022-08-25T03:48:51;10.60;;;9.90;;
12880;SDS011;6508;53.786;9.996;2022-08-25T03:51:20;10.77;;;10.07;;
12880;SDS011;6508;53.786;9.996;2022-08-25T03:53:49;10.27;;;9.57;;
12880;SDS011;6508;53.786;9.996;2022-08-25T03:56:17;9.95;;;9.23;;
12880;SDS011;6508;53.786;9.996;2022-08-25T03:58:45;10.38;;;9.63;;
12880;SDS011;6508;53.786;9.996;2022-08-25T04:01:13;10.02;;;9.13;;
12880;SDS011;6508;53.786;9.996;2022-08-25T04:03:43;10.38;;;9.63;;
12880;SDS011;6508;53.786;9.996;2022-08-25T04:06:11;12.60;;;10.75;;
12880;SDS011;6508;53.786;9.996;2022-08-25T04:08:39;10.82;;;10.07;;
12880;SDS011;6508;53.786;9.996;2022-08-25T04:11:09;10.25;;;9.48;;
12880;SDS011;6508;53.786;9.996;2022-08-25T04:13:37;11.75;;;10.77;;
12880;SDS011;6508;53.786;9.996;2022-08-25T04:16:08;9.77;;;9.18;;
12880;SDS011;6508;53.786;9.996;2022-08-25T04:18:36;10.50;;;9.80;;
12880;SDS011;6508;53.786;9.996;2022-08-25T04:21:04;10.88;;;9.98;;
12880;SDS011;6508;53.786;9.996;2022-08-25T04:23:34;10.82;;;10.02;;
12880;SDS011;6508;53.786;9.996;2022-08-25T04:26:06;11.70;;;10.88;;
12880;SDS011;6508;53.786;9.996;2022-08-25T04:28:36;11.55;;;10.55;;
12880;SDS011;6508;53.786;9.996;2022-08-25T04:31:05;12.95;;;12.05;;
12880;SDS011;6508;53.786;9.996;2022-08-25T04:33:33;12.50;;;11.52;;
12880;SDS011;6508;53.786;9.996;2022-08-25T04:36:00;11.90;;;10.85;;
12880;SDS011;6508;53.786;9.996;2022-08-25T04:38:28;12.60;;;11.30;;
12880;SDS011;6508;53.786;9.996;2022-08-25T04:40:58;12.88;;;11.88;;
12880;SDS011;6508;53.786;9.996;2022-08-25T04:43:26;12.30;;;11.20;;
12880;SDS011;6508;53.786;9.996;2022-08-25T04:45:55;12.38;;;11.48;;
12880;SDS011;6508;53.786;9.996;2022-08-25T04:48:23;12.57;;;11.77;;
12880;SDS011;6508;53.786;9.996;2022-08-25T04:50:51;12.55;;;11.55;;
12880;SDS011;6508;53.786;9.996;2022-08-25T04:53:20;12.02;;;10.93;;
12880;SDS011;6508;53.786;9.996;2022-08-25T04:55:47;12.10;;;11.13;;
12880;SDS011;6508;53.786;9.996;2022-08-25T04:58:15;12.80;;;11.65;;
12880;SDS011;6508;53.786;9.996;2022-08-25T05:00:43;12.90;;;11.73;;
12880;SDS011;6508;53.786;9.996;2022-08-25T05:03:13;12.15;;;11.18;;
12880;SDS011;6508;53.786;9.996;2022-08-25T05:05:41;12.63;;;11.52;;
12880;SDS011;6508;53.786;9.996;2022-08-25T05:08:08;12.88;;;11.85;;
12880;SDS011;6508;53.786;9.996;2022-08-25T05:10:38;12.90;;;11.90;;
12880;SDS011;6508;53.786;9.996;2022-08-25T05:13:08;13.50;;;12.40;;
12880;SDS011;6508;53.786;9.996;2022-08-25T05:15:36;13.90;;;12.75;;
12880;SDS011;6508;53.786;9.996;2022-08-25T05:18:20;14.50;;;13.20;;
12880;SDS011;6508;53.786;9.996;2022-08-25T05:20:48;14.57;;;13.27;;
12880;SDS011;6508;53.786;9.996;2022-08-25T05:23:16;14.00;;;12.80;;
12880;SDS011;6508;53.786;9.996;2022-08-25T05:25:44;14.70;;;13.35;;
12880;SDS011;6508;53.786;9.996;2022-08-25T05:28:12;15.23;;;13.73;;
12880;SDS011;6508;53.786;9.996;2022-08-25T05:30:40;14.43;;;13.10;;
12880;SDS011;6508;53.786;9.996;2022-08-25T05:33:08;14.90;;;13.65;;
12880;SDS011;6508;53.786;9.996;2022-08-25T05:35:38;15.63;;;14.23;;
12880;SDS011;6508;53.786;9.996;2022-08-25T05:38:05;16.75;;;15.18;;
12880;SDS011;6508;53.786;9.996;2022-08-25T05:40:40;14.77;;;13.57;;
12880;SDS011;6508;53.786;9.996;2022-08-25T05:43:08;15.35;;;14.00;;
12880;SDS011;6508;53.786;9.996;2022-08-25T05:45:37;16.58;;;14.95;;
12880;SDS011;6508;53.786;9.996;2022-08-25T05:48:05;16.92;;;15.23;;
12880;SDS011;6508;53.786;9.996;2022-08-25T05:50:34;15.18;;;13.82;;
12880;SDS011;6508;53.786;9.996;2022-08-25T05:53:03;15.40;;;14.02;;
12880;SDS011;6508;53.786;9.996;2022-08-25T05:55:30;15.88;;;14.45;;
12880;SDS011;6508;53.786;9.996;2022-08-25T05:57:58;16.30;;;14.32;;
12880;SDS011;6508;53.786;9.996;2022-08-25T06:00:26;16.80;;;15.07;;
12880;SDS011;6508;53.786;9.996;2022-08-25T06:02:53;17.08;;;14.85;;
12880;SDS011;6508;53.786;9.996;2022-08-25T06:05:21;17.30;;;15.65;;
12880;SDS011;6508;53.786;9.996;2022-08-25T06:07:50;16.73;;;15.13;;
12880;SDS011;6508;53.786;9.996;2022-08-25T06:10:19;18.00;;;15.50;;
12880;SDS011;6508;53.786;9.996;2022-08-25T06:12:47;17.17;;;15.23;;
12880;SDS011;6508;53.786;9.996;2022-08-25T06:15:16;15.88;;;14.48;;
12880;SDS011;6508;53.786;9.996;2022-08-25T06:17:44;16.45;;;14.98;;
12880;SDS011;6508;53.786;9.996;2022-08-25T06:20:14;15.25;;;13.85;;
12880;SDS011;6508;53.786;9.996;2022-08-25T06:22:42;14.77;;;13.43;;
12880;SDS011;6508;53.786;9.996;2022-08-25T06:25:10;16.00;;;14.43;;
12880;SDS011;6508;53.786;9.996;2022-08-25T06:27:40;15.75;;;14.35;;
12880;SDS011;6508;53.786;9.996;2022-08-25T06:30:09;14.27;;;13.00;;
12880;SDS011;6508;53.786;9.996;2022-08-25T06:32:42;16.13;;;14.40;;
12880;SDS011;6508;53.786;9.996;2022-08-25T06:35:11;14.80;;;13.40;;
12880;SDS011;6508;53.786;9.996;2022-08-25T06:37:39;15.27;;;13.55;;
12880;SDS011;6508;53.786;9.996;2022-08-25T06:40:08;14.43;;;13.13;;
12880;SDS011;6508;53.786;9.996;2022-08-25T06:42:37;14.00;;;12.77;;
12880;SDS011;6508;53.786;9.996;2022-08-25T06:45:07;15.90;;;14.25;;
12880;SDS011;6508;53.786;9.996;2022-08-25T06:47:35;14.55;;;13.32;;
12880;SDS011;6508;53.786;9.996;2022-08-25T06:50:03;16.50;;;14.98;;
12880;SDS011;6508;53.786;9.996;2022-08-25T06:52:32;15.68;;;14.38;;
12880;SDS011;6508;53.786;9.996;2022-08-25T06:55:01;15.05;;;13.85;;
12880;SDS011;6508;53.786;9.996;2022-08-25T06:57:28;14.75;;;13.52;;
12880;SDS011;6508;53.786;9.996;2022-08-25T06:59:58;15.57;;;14.20;;
12880;SDS011;6508;53.786;9.996;2022-08-25T07:02:29;15.48;;;14.18;;
12880;SDS011;6508;53.786;9.996;2022-08-25T07:05:00;14.52;;;13.15;;
12880;SDS011;6508;53.786;9.996;2022-08-25T07:07:30;15.07;;;13.65;;
12880;SDS011;6508;53.786;9.996;2022-08-25T07:10:09;15.52;;;14.20;;
12880;SDS011;6508;53.786;9.996;2022-08-25T07:12:38;14.98;;;13.60;;
12880;SDS011;6508;53.786;9.996;2022-08-25T07:15:07;14.27;;;13.07;;
12880;SDS011;6508;53.786;9.996;2022-08-25T07:17:47;14.35;;;13.10;;
12880;SDS011;6508;53.786;9.996;2022-08-25T07:20:15;15.75;;;14.25;;
12880;SDS011;6508;53.786;9.996;2022-08-25T07:22:45;14.65;;;13.35;;
12880;SDS011;6508;53.786;9.996;2022-08-25T07:25:13;16.65;;;14.98;;
12880;SDS011;6508;53.786;9.996;2022-08-25T07:27:43;15.98;;;14.38;;
12880;SDS011;6508;53.786;9.996;2022-08-25T07:30:11;14.27;;;12.85;;
12880;SDS011;6508;53.786;9.996;2022-08-25T07:32:39;15.95;;;14.48;;
12880;SDS011;6508;53.786;9.996;2022-08-25T07:35:10;15.57;;;14.27;;
12880;SDS011;6508;53.786;9.996;2022-08-25T07:37:45;15.27;;;13.75;;
12880;SDS011;6508;53.786;9.996;2022-08-25T07:40:16;16.58;;;15.07;;
12880;SDS011;6508;53.786;9.996;2022-08-25T07:42:44;16.67;;;15.18;;
12880;SDS011;6508;53.786;9.996;2022-08-25T07:45:12;16.42;;;14.93;;
12880;SDS011;6508;53.786;9.996;2022-08-25T07:48:01;15.13;;;13.80;;
12880;SDS011;6508;53.786;9.996;2022-08-25T07:50:30;16.58;;;14.88;;
12880;SDS011;6508;53.786;9.996;2022-08-25T07:52:58;15.60;;;14.30;;
12880;SDS011;6508;53.786;9.996;2022-08-25T07:55:26;16.38;;;14.77;;
12880;SDS011;6508;53.786;9.996;2022-08-25T07:57:55;16.70;;;15.15;;
12880;SDS011;6508;53.786;9.996;2022-08-25T08:00:25;16.65;;;15.10;;
12880;SDS011;6508;53.786;9.996;2022-08-25T08:02:55;15.45;;;13.95;;
12880;SDS011;6508;53.786;9.996;2022-08-25T08:05:24;18.33;;;16.55;;
12880;SDS011;6508;53.786;9.996;2022-08-25T08:07:54;17.88;;;16.17;;
12880;SDS011;6508;53.786;9.996;2022-08-25T08:10:22;16.83;;;15.43;;
12880;SDS011;6508;53.786;9.996;2022-08-25T08:13:10;17.67;;;16.08;;
12880;SDS011;6508;53.786;9.996;2022-08-25T08:15:44;18.35;;;16.65;;
12880;SDS011;6508;53.786;9.996;2022-08-25T08:18:12;19.05;;;17.15;;
12880;SDS011;6508;53.786;9.996;2022-08-25T08:20:39;18.65;;;16.75;;
12880;SDS011;6508;53.786;9.996;2022-08-25T08:23:11;20.83;;;17.83;;
12880;SDS011;6508;53.786;9.996;2022-08-25T08:25:39;20.30;;;18.30;;
12880;SDS011;6508;53.786;9.996;2022-08-25T08:28:07;20.63;;;17.92;;
12880;SDS011;6508;53.786;9.996;2022-08-25T08:30:36;19.17;;;17.38;;
12880;SDS011;6508;53.786;9.996;2022-08-25T08:33:04;18.92;;;17.13;;
12880;SDS011;6508;53.786;9.996;2022-08-25T08:35:36;18.38;;;15.85;;
12880;SDS011;6508;53.786;9.996;2022-08-25T08:38:04;19.55;;;15.32;;
12880;SDS011;6508;53.786;9.996;2022-08-25T08:40:44;17.80;;;15.95;;
12880;SDS011;6508;53.786;9.996;2022-08-25T08:43:34;16.10;;;14.50;;
12880;SDS011;6508;53.786;9.996;2022-08-25T08:46:04;16.33;;;14.77;;
12880;SDS011;6508;53.786;9.996;2022-08-25T08:48:39;16.08;;;14.13;;
12880;SDS011;6508;53.786;9.996;2022-08-25T08:51:15;14.15;;;12.95;;
12880;SDS011;6508;53.786;9.996;2022-08-25T08:53:50;13.05;;;11.98;;
12880;SDS011;6508;53.786;9.996;2022-08-25T08:56:24;12.15;;;11.15;;
12880;SDS011;6508;53.786;9.996;2022-08-25T08:58:57;10.80;;;9.90;;
12880;SDS011;6508;53.786;9.996;2022-08-25T09:01:31;10.18;;;9.30;;
12880;SDS011;6508;53.786;9.996;2022-08-25T09:04:02;8.65;;;8.05;;
12880;SDS011;6508;53.786;9.996;2022-08-25T09:06:35;8.77;;;7.75;;
12880;SDS011;6508;53.786;9.996;2022-08-25T09:09:04;7.60;;;7.03;;
12880;SDS011;6508;53.786;9.996;2022-08-25T09:11:38;7.18;;;6.63;;
12880;SDS011;6508;53.786;9.996;2022-08-25T09:14:13;7.88;;;7.10;;
12880;SDS011;6508;53.786;9.996;2022-08-25T09:16:47;6.10;;;5.70;;
12880;SDS011;6508;53.786;9.996;2022-08-25T09:19:37;6.72;;;6.18;;
12880;SDS011;6508;53.786;9.996;2022-08-25T09:22:10;6.22;;;5.63;;
12880;SDS011;6508;53.786;9.996;2022-08-25T09:25:04;5.70;;;5.30;;
12880;SDS011;6508;53.786;9.996;2022-08-25T09:27:38;5.65;;;5.18;;
12880;SDS011;6508;53.786;9.996;2022-08-25T09:30:08;6.35;;;5.85;;
12880;SDS011;6508;53.786;9.996;2022-08-25T09:32:37;5.10;;;4.80;;
12880;SDS011;6508;53.786;9.996;2022-08-25T09:35:06;5.50;;;5.10;;
12880;SDS011;6508;53.786;9.996;2022-08-25T09:37:34;5.50;;;4.97;;
12880;SDS011;6508;53.786;9.996;2022-08-25T09:40:02;6.28;;;5.88;;
12880;SDS011;6508;53.786;9.996;2022-08-25T09:42:48;5.35;;;5.00;;
12880;SDS011;6508;53.786;9.996;2022-08-25T09:45:30;5.20;;;4.90;;
12880;SDS011;6508;53.786;9.996;2022-08-25T09:47:58;4.97;;;4.63;;
12880;SDS011;6508;53.786;9.996;2022-08-25T09:50:29;6.22;;;5.28;;
12880;SDS011;6508;53.786;9.996;2022-08-25T09:53:11;5.20;;;4.80;;
12880;SDS011;6508;53.786;9.996;2022-08-25T09:55:45;4.28;;;4.07;;
12880;SDS011;6508;53.786;9.996;2022-08-25T09:58:16;5.25;;;4.95;;
12880;SDS011;6508;53.786;9.996;2022-08-25T10:00:58;4.30;;;4.05;;
12880;SDS011;6508;53.786;9.996;2022-08-25T10:03:26;4.82;;;4.43;;
12880;SDS011;6508;53.786;9.996;2022-08-25T10:05:59;4.95;;;4.47;;
12880;SDS011;6508;53.786;9.996;2022-08-25T10:08:30;5.05;;;4.65;;
12880;SDS011;6508;53.786;9.996;2022-08-25T10:10:58;4.30;;;4.00;;
12880;SDS011;6508;53.786;9.996;2022-08-25T10:13:38;4.55;;;4.25;;
12880;SDS011;6508;53.786;9.996;2022-08-25T10:16:09;4.60;;;4.30;;
12880;SDS011;6508;53.786;9.996;2022-08-25T10:18:48;4.00;;;3.67;;
12880;SDS011;6508;53.786;9.996;2022-08-25T10:21:26;4.00;;;3.80;;
12880;SDS011;6508;53.786;9.996;2022-08-25T10:23:53;4.63;;;4.32;;
12880;SDS011;6508;53.786;9.996;2022-08-25T10:26:27;4.07;;;3.83;;
12880;SDS011;6508;53.786;9.996;2022-08-25T10:29:05;4.38;;;4.07;;
12880;SDS011;6508;53.786;9.996;2022-08-25T10:31:38;4.10;;;3.78;;
12880;SDS011;6508;53.786;9.996;2022-08-25T10:34:13;4.18;;;3.88;;
12880;SDS011;6508;53.786;9.996;2022-08-25T10:36:48;4.35;;;3.78;;
12880;SDS011;6508;53.786;9.996;2022-08-25T10:39:25;4.57;;;4.18;;
12880;SDS011;6508;53.786;9.996;2022-08-25T10:42:02;3.63;;;3.40;;
12880;SDS011;6508;53.786;9.996;2022-08-25T10:44:41;4.05;;;3.85;;
12880;SDS011;6508;53.786;9.996;2022-08-25T10:47:37;4.18;;;3.80;;
12880;SDS011;6508;53.786;9.996;2022-08-25T10:50:13;4.22;;;3.92;;
12880;SDS011;6508;53.786;9.996;2022-08-25T10:52:45;4.22;;;3.75;;
12880;SDS011;6508;53.786;9.996;2022-08-25T10:55:23;4.30;;;4.07;;
12880;SDS011;6508;53.786;9.996;2022-08-25T10:57:54;3.15;;;3.00;;
12880;SDS011;6508;53.786;9.996;2022-08-25T11:00:26;4.00;;;3.65;;
12880;SDS011;6508;53.786;9.996;2022-08-25T11:03:01;3.70;;;3.50;;
12880;SDS011;6508;53.786;9.996;2022-08-25T11:05:33;3.60;;;3.40;;
12880;SDS011;6508;53.786;9.996;2022-08-25T11:08:07;4.00;;;3.80;;
12880;SDS011;6508;53.786;9.996;2022-08-25T11:10:39;3.80;;;3.38;;
12880;SDS011;6508;53.786;9.996;2022-08-25T11:13:09;3.83;;;3.63;;
12880;SDS011;6508;53.786;9.996;2022-08-25T11:15:44;4.65;;;4.32;;
12880;SDS011;6508;53.786;9.996;2022-08-25T11:18:34;3.85;;;3.60;;
12880;SDS011;6508;53.786;9.996;2022-08-25T11:21:06;3.70;;;3.50;;
12880;SDS011;6508;53.786;9.996;2022-08-25T11:23:36;4.15;;;3.83;;
12880;SDS011;6508;53.786;9.996;2022-08-25T11:26:06;3.47;;;3.28;;
12880;SDS011;6508;53.786;9.996;2022-08-25T11:28:39;3.85;;;3.55;;
12880;SDS011;6508;53.786;9.996;2022-08-25T11:31:11;3.90;;;3.60;;
12880;SDS011;6508;53.786;9.996;2022-08-25T11:33:42;3.70;;;3.50;;
12880;SDS011;6508;53.786;9.996;2022-08-25T11:36:14;3.65;;;3.40;;
12880;SDS011;6508;53.786;9.996;2022-08-25T11:38:45;3.75;;;3.45;;
12880;SDS011;6508;53.786;9.996;2022-08-25T11:41:20;3.63;;;3.42;;
12880;SDS011;6508;53.786;9.996;2022-08-25T11:43:53;3.83;;;3.58;;
12880;SDS011;6508;53.786;9.996;2022-08-25T11:46:34;3.78;;;3.58;;
12880;SDS011;6508;53.786;9.996;2022-08-25T11:49:10;4.25;;;3.90;;
12880;SDS011;6508;53.786;9.996;2022-08-25T11:51:42;3.70;;;3.40;;
12880;SDS011;6508;53.786;9.996;2022-08-25T11:54:15;3.88;;;3.65;;
12880;SDS011;6508;53.786;9.996;2022-08-25T11:56:49;3.42;;;3.22;;
12880;SDS011;6508;53.786;9.996;2022-08-25T12:02:01;4.10;;;3.90;;
12880;SDS011;6508;53.786;9.996;2022-08-25T12:04:34;3.40;;;3.20;;
12880;SDS011;6508;53.786;9.996;2022-08-25T12:07:17;3.75;;;3.53;;
12880;SDS011;6508;53.786;9.996;2022-08-25T12:12:37;3.45;;;3.35;;
12880;SDS011;6508;53.786;9.996;2022-08-25T12:15:18;3.47;;;3.28;;
12880;SDS011;6508;53.786;9.996;2022-08-25T12:18:06;3.67;;;3.38;;
12880;SDS011;6508;53.786;9.996;2022-08-25T12:23:26;3.67;;;3.47;;
12880;SDS011;6508;53.786;9.996;2022-08-25T12:25:54;3.58;;;3.28;;
12880;SDS011;6508;53.786;9.996;2022-08-25T12:31:20;3.63;;;3.42;;
12880;SDS011;6508;53.786;9.996;2022-08-25T12:33:57;4.10;;;3.42;;
12880;SDS011;6508;53.786;9.996;2022-08-25T12:36:30;3.60;;;3.40;;
12880;SDS011;6508;53.786;9.996;2022-08-25T12:39:15;3.58;;;3.40;;
12880;SDS011;6508;53.786;9.996;2022-08-25T12:41:51;3.60;;;3.40;;
12880;SDS011;6508;53.786;9.996;2022-08-25T12:44:31;5.00;;;3.65;;
12880;SDS011;6508;53.786;9.996;2022-08-25T12:47:05;4.55;;;3.50;;
12880;SDS011;6508;53.786;9.996;2022-08-25T12:49:34;3.97;;;3.67;;
12880;SDS011;6508;53.786;9.996;2022-08-25T12:52:03;3.60;;;3.42;;
12880;SDS011;6508;53.786;9.996;2022-08-25T12:54:41;3.83;;;3.63;;
12880;SDS011;6508;53.786;9.996;2022-08-25T12:57:25;3.55;;;3.35;;
12880;SDS011;6508;53.786;9.996;2022-08-25T12:59:56;3.80;;;3.50;;
12880;SDS011;6508;53.786;9.996;2022-08-25T13:02:36;3.60;;;3.40;;
12880;SDS011;6508;53.786;9.996;2022-08-25T13:08:13;4.68;;;3.85;;
12880;SDS011;6508;53.786;9.996;2022-08-25T13:10:45;3.83;;;3.38;;
12880;SDS011;6508;53.786;9.996;2022-08-25T13:13:15;3.90;;;3.60;;
12880;SDS011;6508;53.786;9.996;2022-08-25T13:15:57;3.60;;;3.40;;
12880;SDS011;6508;53.786;9.996;2022-08-25T13:18:25;3.50;;;3.40;;
12880;SDS011;6508;53.786;9.996;2022-08-25T13:20:58;4.35;;;3.95;;
12880;SDS011;6508;53.786;9.996;2022-08-25T13:23:29;4.32;;;4.13;;
12880;SDS011;6508;53.786;9.996;2022-08-25T13:25:59;4.03;;;3.67;;
12880;SDS011;6508;53.786;9.996;2022-08-25T13:28:28;4.13;;;3.92;;
12880;SDS011;6508;53.786;9.996;2022-08-25T13:30:58;3.47;;;3.38;;
12880;SDS011;6508;53.786;9.996;2022-08-25T13:33:26;3.72;;;3.53;;
12880;SDS011;6508;53.786;9.996;2022-08-25T13:35:54;4.25;;;3.97;;
12880;SDS011;6508;53.786;9.996;2022-08-25T13:38:38;4.10;;;3.80;;
12880;SDS011;6508;53.786;9.996;2022-08-25T13:41:15;4.40;;;4.00;;
12880;SDS011;6508;53.786;9.996;2022-08-25T13:43:44;3.97;;;3.67;;
12880;SDS011;6508;53.786;9.996;2022-08-25T13:46:12;5.28;;;4.22;;
12880;SDS011;6508;53.786;9.996;2022-08-25T13:48:40;4.60;;;3.95;;
12880;SDS011;6508;53.786;9.996;2022-08-25T13:51:17;3.75;;;3.55;;
12880;SDS011;6508;53.786;9.996;2022-08-25T13:53:49;4.05;;;3.65;;
12880;SDS011;6508;53.786;9.996;2022-08-25T13:56:26;3.78;;;3.50;;
12880;SDS011;6508;53.786;9.996;2022-08-25T13:59:04;3.72;;;3.53;;
12880;SDS011;6508;53.786;9.996;2022-08-25T14:01:42;3.83;;;3.33;;
12880;SDS011;6508;53.786;9.996;2022-08-25T14:04:19;4.20;;;4.00;;
12880;SDS011;6508;53.786;9.996;2022-08-25T14:06:47;3.67;;;3.47;;
12880;SDS011;6508;53.786;9.996;2022-08-25T14:09:17;3.47;;;3.28;;
12880;SDS011;6508;53.786;9.996;2022-08-25T14:11:55;3.38;;;3.28;;
12880;SDS011;6508;53.786;9.996;2022-08-25T14:14:29;4.05;;;3.65;;
12880;SDS011;6508;53.786;9.996;2022-08-25T14:17:00;3.92;;;3.63;;
12880;SDS011;6508;53.786;9.996;2022-08-25T14:19:47;4.60;;;3.90;;
12880;SDS011;6508;53.786;9.996;2022-08-25T14:22:15;4.32;;;4.03;;
12880;SDS011;6508;53.786;9.996;2022-08-25T14:24:44;3.30;;;3.05;;
12880;SDS011;6508;53.786;9.996;2022-08-25T14:27:12;4.50;;;4.15;;
12880;SDS011;6508;53.786;9.996;2022-08-25T14:29:40;3.90;;;3.70;;
12880;SDS011;6508;53.786;9.996;2022-08-25T14:32:08;4.00;;;3.70;;
12880;SDS011;6508;53.786;9.996;2022-08-25T14:34:36;4.20;;;3.92;;
12880;SDS011;6508;53.786;9.996;2022-08-25T14:37:07;4.35;;;4.15;;
12880;SDS011;6508;53.786;9.996;2022-08-25T14:39:41;4.30;;;4.10;;
12880;SDS011;6508;53.786;9.996;2022-08-25T14:42:11;4.05;;;3.75;;
12880;SDS011;6508;53.786;9.996;2022-08-25T14:44:38;4.57;;;4.28;;
12880;SDS011;6508;53.786;9.996;2022-08-25T14:47:06;4.70;;;4.30;;
12880;SDS011;6508;53.786;9.996;2022-08-25T14:49:34;4.65;;;4.30;;
12880;SDS011;6508;53.786;9.996;2022-08-25T14:52:03;4.75;;;4.30;;
12880;SDS011;6508;53.786;9.996;2022-08-25T14:54:33;4.05;;;3.78;;
12880;SDS011;6508;53.786;9.996;2022-08-25T14:57:05;4.82;;;4.07;;
12880;SDS011;6508;53.786;9.996;2022-08-25T14:59:35;4.82;;;4.30;;
12880;SDS011;6508;53.786;9.996;2022-08-25T15:02:08;4.63;;;4.43;;
12880;SDS011;6508;53.786;9.996;2022-08-25T15:04:38;4.57;;;4.18;;
12880;SDS011;6508;53.786;9.996;2022-08-25T15:07:14;4.63;;;4.22;;
12880;SDS011;6508;53.786;9.996;2022-08-25T15:09:57;4.30;;;3.90;;
12880;SDS011;6508;53.786;9.996;2022-08-25T15:12:25;4.88;;;4.35;;
12880;SDS011;6508;53.786;9.996;2022-08-25T15:15:14;5.22;;;4.72;;
12880;SDS011;6508;53.786;9.996;2022-08-25T15:17:42;4.65;;;4.35;;
12880;SDS011;6508;53.786;9.996;2022-08-25T15:20:14;4.85;;;4.45;;
12880;SDS011;6508;53.786;9.996;2022-08-25T15:22:42;4.25;;;3.92;;
12880;SDS011;6508;53.786;9.996;2022-08-25T15:25:10;5.30;;;4.65;;
12880;SDS011;6508;53.786;9.996;2022-08-25T15:27:38;4.50;;;4.13;;